createdAt,value
2022-12-01T00:00:17.276Z,31.42
2022-12-01T00:02:44.619Z,32.78
2022-12-01T00:05:11.815Z,27.52
2022-12-01T00:07:39.145Z,40.58
2022-12-01T00:10:25.343Z,43.88
2022-12-01T00:15:19.556Z,51.22
2022-12-01T00:17:47.866Z,31.83
2022-12-01T00:20:15.816Z,33.42
2022-12-01T00:22:43.818Z,36.10
2022-12-01T00:25:11.157Z,31.45
2022-12-01T00:27:38.179Z,26.25
2022-12-01T00:30:05.786Z,31.60
2022-12-01T00:32:32.884Z,24.90
2022-12-01T00:35:00.105Z,27.33
2022-12-01T00:37:27.313Z,25.55
2022-12-01T00:39:54.600Z,25.27
2022-12-01T00:42:21.855Z,26.98
2022-12-01T00:44:49.133Z,24.58
2022-12-01T00:47:16.600Z,22.15
2022-12-01T00:49:45.803Z,23.92
2022-12-01T00:52:13.896Z,20.17
2022-12-01T00:54:41.051Z,24.55
2022-12-01T00:57:09.809Z,21.17
2022-12-01T00:59:37.000Z,24.13
2022-12-01T01:02:06.072Z,23.48
2022-12-01T01:04:34.235Z,19.55
2022-12-01T01:07:01.679Z,20.33
2022-12-01T01:09:28.893Z,21.92
2022-12-01T01:11:56.172Z,20.63
2022-12-01T01:14:23.836Z,17.42
2022-12-01T01:16:51.063Z,19.25
2022-12-01T01:19:18.509Z,17.90
2022-12-01T01:21:45.775Z,18.85
2022-12-01T01:24:12.980Z,20.20
2022-12-01T01:26:40.152Z,17.30
2022-12-01T01:29:10.181Z,16.58
2022-12-01T01:31:37.333Z,16.38
2022-12-01T01:34:05.163Z,17.33
2022-12-01T01:36:32.546Z,17.52
2022-12-01T01:39:00.863Z,16.25
2022-12-01T01:41:29.125Z,16.13
2022-12-01T01:43:57.863Z,18.88
2022-12-01T01:46:26.229Z,16.95
2022-12-01T01:49:01.684Z,14.00
2022-12-01T01:51:33.775Z,15.80
2022-12-01T01:54:03.153Z,16.65
2022-12-01T01:56:30.800Z,14.30
2022-12-01T01:58:58.537Z,16.05
2022-12-01T02:01:25.900Z,16.77
2022-12-01T02:03:54.633Z,14.85
2022-12-01T02:06:22.985Z,15.90
2022-12-01T02:08:50.368Z,13.95
2022-12-01T02:11:48.784Z,15.02
2022-12-01T02:14:28.132Z,14.07
2022-12-01T02:16:56.191Z,14.52
2022-12-01T02:19:49.971Z,15.88
2022-12-01T02:22:30.605Z,14.15
2022-12-01T02:25:09.669Z,15.18
2022-12-01T02:27:55.547Z,14.63
2022-12-01T02:30:44.567Z,17.45
2022-12-01T02:33:31.981Z,15.23
2022-12-01T02:36:05.004Z,16.95
2022-12-01T02:38:38.041Z,13.88
2022-12-01T02:41:08.189Z,13.45
2022-12-01T02:43:45.922Z,13.68
2022-12-01T02:46:16.158Z,14.65
2022-12-01T02:48:44.962Z,15.23
2022-12-01T02:51:15.071Z,17.30
2022-12-01T02:53:42.356Z,14.70
2022-12-01T02:56:11.870Z,13.90
2022-12-01T02:58:38.856Z,15.43
2022-12-01T03:01:09.164Z,14.60
2022-12-01T03:03:39.382Z,15.38
2022-12-01T03:06:35.832Z,15.68
2022-12-01T03:09:02.917Z,15.48
2022-12-01T03:11:36.407Z,15.18
2022-12-01T03:14:14.908Z,13.85
2022-12-01T03:16:49.759Z,14.73
2022-12-01T03:19:28.392Z,14.27
2022-12-01T03:21:59.142Z,15.05
2022-12-01T03:24:29.606Z,16.20
2022-12-01T03:26:57.762Z,15.48
2022-12-01T03:29:32.783Z,12.88
2022-12-01T03:32:02.986Z,16.35
2022-12-01T03:34:36.179Z,16.38
2022-12-01T03:37:30.737Z,15.10
2022-12-01T03:40:00.685Z,14.38
2022-12-01T03:42:37.148Z,14.35
2022-12-01T03:45:10.365Z,14.18
2022-12-01T03:47:39.738Z,13.50
2022-12-01T03:50:08.504Z,16.08
2022-12-01T03:52:48.349Z,13.20
2022-12-01T03:55:21.386Z,13.45
2022-12-01T03:57:57.305Z,13.88
2022-12-01T04:00:24.792Z,13.73
2022-12-01T04:02:56.825Z,12.60
2022-12-01T04:05:25.599Z,14.02
2022-12-01T04:07:53.335Z,12.23
2022-12-01T04:10:20.497Z,12.30
2022-12-01T04:12:47.587Z,12.52
2022-12-01T04:15:15.257Z,13.23
2022-12-01T04:17:46.058Z,12.40
2022-12-01T04:20:14.140Z,13.27
2022-12-01T04:22:41.677Z,11.88
2022-12-01T04:25:09.064Z,13.90
2022-12-01T04:27:36.343Z,12.43
2022-12-01T04:30:04.843Z,11.68
2022-12-01T04:32:32.003Z,11.38
2022-12-01T04:34:59.141Z,10.70
2022-12-01T04:37:26.309Z,11.18
2022-12-01T04:39:53.437Z,13.27
2022-12-01T04:42:20.586Z,12.73
2022-12-01T04:44:47.661Z,12.23
2022-12-01T04:47:14.814Z,12.88
2022-12-01T04:49:41.804Z,13.13
2022-12-01T04:52:08.947Z,13.30
2022-12-01T04:54:36.064Z,9.25
2022-12-01T04:57:03.213Z,9.38
2022-12-01T04:59:30.323Z,9.63
2022-12-01T05:01:57.754Z,10.20
2022-12-01T05:04:25.015Z,8.82
2022-12-01T05:06:54.226Z,8.73
2022-12-01T05:09:21.651Z,9.23
2022-12-01T05:11:48.875Z,10.50
2022-12-01T05:14:15.884Z,10.35
2022-12-01T05:16:43.022Z,9.73
2022-12-01T05:19:29.124Z,9.57
2022-12-01T05:24:23.310Z,11.18
2022-12-01T05:26:50.389Z,10.65
2022-12-01T05:29:17.565Z,10.50
2022-12-01T05:31:45.484Z,10.05
2022-12-01T05:34:12.737Z,13.30
2022-12-01T05:36:39.878Z,11.40
2022-12-01T05:39:07.080Z,8.77
2022-12-01T05:41:34.224Z,11.32
2022-12-01T05:44:01.356Z,10.77
2022-12-01T05:46:28.369Z,12.88
2022-12-01T05:48:55.617Z,30.38
2022-12-01T05:51:22.787Z,11.32
2022-12-01T05:53:49.966Z,12.88
2022-12-01T05:56:17.088Z,13.27
2022-12-01T05:58:44.216Z,12.07
2022-12-01T06:01:11.330Z,14.05
2022-12-01T06:03:38.474Z,15.90
2022-12-01T06:06:05.740Z,15.85
2022-12-01T06:08:33.188Z,11.85
2022-12-01T06:11:00.563Z,13.98
2022-12-01T06:13:27.746Z,10.98
2022-12-01T06:16:02.928Z,13.45
2022-12-01T06:18:34.467Z,15.25
2022-12-01T06:21:01.912Z,14.15
2022-12-01T06:23:30.539Z,14.15
2022-12-01T06:25:58.666Z,13.70
2022-12-01T06:28:25.848Z,14.18
2022-12-01T06:30:55.515Z,17.27
2022-12-01T06:33:26.528Z,16.05
2022-12-01T06:36:04.403Z,16.70
2022-12-01T06:38:32.902Z,20.15
2022-12-01T06:41:00.608Z,17.98
2022-12-01T06:43:27.923Z,19.48
2022-12-01T06:46:00.914Z,20.02
2022-12-01T06:48:28.723Z,17.67
2022-12-01T06:50:59.177Z,18.33
2022-12-01T06:53:28.815Z,18.52
2022-12-01T06:56:02.819Z,20.77
2022-12-01T06:58:30.461Z,19.25
2022-12-01T07:00:59.097Z,19.27
2022-12-01T07:03:26.529Z,20.52
2022-12-01T07:05:58.930Z,19.98
2022-12-01T07:08:26.897Z,19.52
2022-12-01T07:11:00.819Z,17.38
2022-12-01T07:13:33.021Z,17.33
2022-12-01T07:16:01.436Z,16.77
2022-12-01T07:18:28.702Z,25.17
2022-12-01T07:21:03.312Z,20.67
2022-12-01T07:23:31.032Z,16.35
2022-12-01T07:26:07.836Z,19.98
2022-12-01T07:28:34.971Z,26.88
2022-12-01T07:31:03.331Z,16.58
2022-12-01T07:33:30.937Z,17.92
2022-12-01T07:35:58.116Z,19.13
2022-12-01T07:38:25.548Z,18.15
2022-12-01T07:40:52.735Z,18.92
2022-12-01T07:43:20.092Z,15.55
2022-12-01T07:45:47.399Z,16.80
2022-12-01T07:48:14.579Z,18.17
2022-12-01T07:50:41.795Z,23.23
2022-12-01T07:53:09.037Z,16.58
2022-12-01T07:55:36.361Z,18.38
2022-12-01T07:58:03.516Z,16.77
2022-12-01T08:00:30.965Z,15.75
2022-12-01T08:02:58.486Z,16.85
2022-12-01T08:05:25.748Z,17.02
2022-12-01T08:07:53.951Z,19.48
2022-12-01T08:10:21.102Z,21.48
2022-12-01T08:12:48.475Z,21.40
2022-12-01T08:15:17.998Z,30.30
2022-12-01T08:17:45.122Z,30.98
2022-12-01T08:20:13.083Z,31.27
2022-12-01T08:22:40.374Z,32.63
2022-12-01T08:25:07.673Z,35.05
2022-12-01T08:27:35.430Z,32.80
2022-12-01T08:30:02.601Z,40.28
2022-12-01T08:32:30.086Z,24.85
2022-12-01T08:34:57.344Z,31.98
2022-12-01T08:37:24.866Z,32.42
2022-12-01T08:39:52.274Z,27.88
2022-12-01T08:42:19.883Z,34.22
2022-12-01T08:44:47.061Z,33.08
2022-12-01T08:47:18.494Z,35.95
2022-12-01T08:49:46.214Z,36.45
2022-12-01T08:52:13.565Z,40.40
2022-12-01T08:54:41.114Z,33.70
2022-12-01T08:57:08.250Z,25.58
2022-12-01T08:59:35.465Z,26.58
2022-12-01T09:02:06.761Z,28.25
2022-12-01T09:04:34.210Z,27.33
2022-12-01T09:07:01.479Z,28.15
2022-12-01T09:09:29.399Z,31.73
2022-12-01T09:11:56.718Z,26.33
2022-12-01T09:14:24.165Z,29.88
2022-12-01T09:16:53.146Z,27.08
2022-12-01T09:19:24.623Z,31.60
2022-12-01T09:21:52.949Z,28.05
2022-12-01T09:24:20.352Z,32.65
2022-12-01T09:26:50.449Z,36.55
2022-12-01T09:29:17.739Z,24.92
2022-12-01T09:31:45.116Z,26.88
2022-12-01T09:34:13.696Z,24.65
2022-12-01T09:36:41.264Z,19.42
2022-12-01T09:39:11.374Z,17.55
2022-12-01T09:41:43.224Z,17.70
2022-12-01T09:44:20.974Z,18.25
2022-12-01T09:46:53.699Z,22.27
2022-12-01T09:49:23.283Z,22.20
2022-12-01T09:51:52.418Z,25.13
2022-12-01T09:54:19.870Z,22.48
2022-12-01T09:56:49.782Z,13.77
2022-12-01T09:59:25.139Z,11.63
2022-12-01T10:01:56.517Z,12.25
2022-12-01T10:04:42.313Z,9.45
2022-12-01T10:07:21.584Z,10.45
2022-12-01T10:10:27.578Z,12.93
2022-12-01T10:12:54.993Z,15.07
2022-12-01T10:15:36.636Z,16.13
2022-12-01T10:18:23.169Z,13.75
2022-12-01T10:21:16.683Z,13.35
2022-12-01T10:23:44.774Z,12.18
2022-12-01T10:26:17.143Z,15.05
2022-12-01T10:28:49.156Z,15.75
2022-12-01T10:31:16.570Z,13.68
2022-12-01T10:34:02.581Z,15.68
2022-12-01T10:36:31.357Z,11.57
2022-12-01T10:38:58.772Z,14.10
2022-12-01T10:41:27.923Z,12.50
2022-12-01T10:43:59.809Z,11.73
2022-12-01T10:46:34.507Z,19.20
2022-12-01T10:49:08.057Z,12.23
2022-12-01T10:51:46.511Z,14.20
2022-12-01T10:54:16.488Z,11.63
2022-12-01T10:56:45.995Z,14.05
2022-12-01T10:59:25.201Z,13.95
2022-12-01T11:01:53.317Z,10.32
2022-12-01T11:04:45.422Z,10.77
2022-12-01T11:07:17.364Z,12.57
2022-12-01T11:09:46.195Z,12.95
2022-12-01T11:12:15.481Z,12.15
2022-12-01T11:14:50.142Z,11.32
2022-12-01T11:17:23.051Z,13.10
2022-12-01T11:19:50.570Z,11.70
2022-12-01T11:22:31.361Z,14.60
2022-12-01T11:25:00.771Z,12.30
2022-12-01T11:27:44.750Z,13.65
2022-12-01T11:30:25.615Z,11.25
2022-12-01T11:32:56.914Z,12.32
2022-12-01T11:35:26.469Z,13.38
2022-12-01T11:38:28.248Z,12.25
2022-12-01T11:40:55.350Z,11.63
2022-12-01T11:43:30.825Z,16.25
2022-12-01T11:46:00.259Z,16.60
2022-12-01T11:48:29.572Z,14.73
2022-12-01T11:51:05.136Z,17.35
2022-12-01T11:56:18.048Z,12.95
2022-12-01T11:58:46.760Z,16.73
2022-12-01T12:01:22.130Z,14.10
2022-12-01T12:06:40.349Z,16.30
2022-12-01T12:09:28.488Z,15.02
2022-12-01T12:12:10.585Z,17.15
2022-12-01T12:14:42.812Z,16.70
2022-12-01T12:17:09.962Z,23.00
2022-12-01T12:20:07.248Z,18.92
2022-12-01T12:22:39.312Z,17.33
2022-12-01T12:25:12.757Z,19.02
2022-12-01T12:27:48.796Z,22.90
2022-12-01T12:30:45.455Z,19.50
2022-12-01T12:33:31.503Z,23.27
2022-12-01T12:38:44.142Z,26.77
2022-12-01T12:41:29.826Z,21.52
2022-12-01T12:44:15.811Z,18.88
2022-12-01T12:47:03.153Z,25.52
2022-12-01T12:49:30.188Z,22.90
2022-12-01T12:52:08.406Z,20.17
2022-12-01T12:54:54.343Z,25.50
2022-12-01T12:57:26.059Z,24.85
2022-12-01T13:00:02.184Z,26.92
2022-12-01T13:02:35.239Z,23.85
2022-12-01T13:05:20.767Z,24.70
2022-12-01T13:07:52.137Z,27.33
2022-12-01T13:10:23.509Z,27.08
2022-12-01T13:12:57.056Z,24.88
2022-12-01T13:15:24.417Z,20.55
2022-12-01T13:17:57.685Z,26.80
2022-12-01T13:20:29.118Z,20.85
2022-12-01T13:22:58.354Z,20.75
2022-12-01T13:25:28.337Z,20.10
2022-12-01T13:27:56.477Z,19.80
2022-12-01T13:30:24.993Z,19.95
2022-12-01T13:33:04.871Z,23.63
2022-12-01T13:35:39.480Z,20.52
2022-12-01T13:38:19.223Z,18.20
2022-12-01T13:40:46.587Z,16.13
2022-12-01T13:43:23.648Z,19.40
2022-12-01T13:45:51.948Z,16.88
2022-12-01T13:48:45.084Z,25.67
2022-12-01T13:51:12.534Z,24.73
2022-12-01T13:53:39.849Z,23.50
2022-12-01T13:56:16.229Z,28.90
2022-12-01T13:58:47.889Z,26.17
2022-12-01T14:01:21.549Z,27.15
2022-12-01T14:04:01.503Z,25.48
2022-12-01T14:06:39.856Z,27.08
2022-12-01T14:09:14.066Z,37.30
2022-12-01T14:11:42.447Z,32.47
2022-12-01T14:14:09.641Z,42.90
2022-12-01T14:16:48.799Z,20.73
2022-12-01T14:19:34.464Z,26.83
2022-12-01T14:22:02.028Z,25.20
2022-12-01T14:24:35.323Z,31.25
2022-12-01T14:27:02.944Z,23.15
2022-12-01T14:29:39.001Z,28.33
2022-12-01T14:32:20.471Z,24.05
2022-12-01T14:34:51.199Z,26.63
2022-12-01T14:37:19.889Z,25.65
2022-12-01T14:39:52.581Z,32.30
2022-12-01T14:42:39.643Z,37.95
2022-12-01T14:45:09.343Z,34.38
2022-12-01T14:47:45.824Z,28.42
2022-12-01T14:52:45.655Z,33.05
2022-12-01T14:55:19.735Z,35.17
2022-12-01T14:57:49.251Z,37.88
2022-12-01T15:00:20.729Z,35.13
2022-12-01T15:02:52.330Z,40.42
2022-12-01T15:05:39.675Z,37.42
2022-12-01T15:08:45.830Z,42.63
2022-12-01T15:11:20.995Z,40.40
2022-12-01T15:13:50.778Z,38.42
2022-12-01T15:16:19.152Z,42.17
2022-12-01T15:18:47.142Z,41.05
2022-12-01T15:21:23.975Z,45.88
2022-12-01T15:24:00.259Z,44.75
2022-12-01T15:26:29.820Z,39.38
2022-12-01T15:29:06.231Z,39.22
2022-12-01T15:31:35.366Z,70.28
2022-12-01T15:34:02.597Z,58.17
2022-12-01T15:36:30.263Z,47.67
2022-12-01T15:39:05.290Z,37.17
2022-12-01T15:41:36.193Z,43.28
2022-12-01T15:44:05.695Z,39.53
2022-12-01T15:46:35.142Z,35.75
2022-12-01T15:49:09.515Z,72.93
2022-12-01T15:51:36.756Z,43.75
2022-12-01T15:54:04.300Z,31.27
2022-12-01T15:56:36.014Z,36.20
2022-12-01T15:59:16.931Z,34.80
2022-12-01T16:01:44.782Z,53.10
2022-12-01T16:04:15.052Z,49.17
2022-12-01T16:06:42.646Z,59.20
2022-12-01T16:09:21.734Z,58.92
2022-12-01T16:12:07.916Z,52.17
2022-12-01T16:17:02.671Z,42.90
2022-12-01T16:19:30.968Z,55.17
2022-12-01T16:22:12.845Z,53.75
2022-12-01T16:24:51.386Z,52.92
2022-12-01T16:27:23.909Z,50.47
2022-12-01T16:30:01.664Z,50.08
2022-12-01T16:32:28.868Z,53.97
2022-12-01T16:34:55.932Z,60.38
2022-12-01T16:37:23.426Z,72.70
2022-12-01T16:39:51.056Z,58.10
2022-12-01T16:42:21.074Z,54.95
2022-12-01T16:44:48.746Z,56.95
2022-12-01T16:47:16.078Z,64.25
2022-12-01T16:49:43.309Z,129.82
2022-12-01T16:54:58.133Z,53.85
2022-12-01T16:57:25.441Z,56.55
2022-12-01T16:59:52.456Z,49.92
2022-12-01T17:02:19.734Z,80.15
2022-12-01T17:04:47.055Z,91.05
2022-12-01T17:07:14.239Z,74.32
2022-12-01T17:09:41.502Z,76.18
2022-12-01T17:12:08.734Z,68.32
2022-12-01T17:14:36.459Z,64.13
2022-12-01T17:17:04.165Z,80.35
2022-12-01T17:19:31.463Z,68.93
2022-12-01T17:21:58.721Z,73.38
2022-12-01T17:24:26.228Z,59.20
2022-12-01T17:26:53.361Z,59.60
2022-12-01T17:29:20.524Z,61.40
2022-12-01T17:31:48.830Z,68.25
2022-12-01T17:34:15.897Z,82.30
2022-12-01T17:36:45.199Z,86.47
2022-12-01T17:39:12.808Z,84.85
2022-12-01T17:41:42.438Z,89.38
2022-12-01T17:44:09.772Z,114.40
2022-12-01T17:46:38.667Z,102.28
2022-12-01T17:49:09.700Z,108.25
2022-12-01T17:51:37.172Z,117.38
2022-12-01T17:54:05.959Z,102.57
2022-12-01T17:56:33.575Z,114.80
2022-12-01T17:59:00.818Z,93.65
2022-12-01T18:01:30.598Z,99.60
2022-12-01T18:03:59.178Z,98.90
2022-12-01T18:06:27.354Z,116.18
2022-12-01T18:08:54.654Z,107.22
2022-12-01T18:11:23.149Z,116.82
2022-12-01T18:13:51.235Z,102.32
2022-12-01T18:16:26.217Z,112.00
2022-12-01T18:18:54.021Z,122.65
2022-12-01T18:21:23.100Z,128.43
2022-12-01T18:23:54.427Z,121.38
2022-12-01T18:26:22.498Z,118.72
2022-12-01T18:29:03.909Z,125.55
2022-12-01T18:31:31.111Z,130.68
2022-12-01T18:33:59.216Z,136.73
2022-12-01T18:36:26.589Z,130.18
2022-12-01T18:38:54.773Z,136.55
2022-12-01T18:41:21.964Z,133.65
2022-12-01T18:43:49.203Z,136.55
2022-12-01T18:46:17.072Z,133.98
2022-12-01T18:48:47.866Z,123.80
2022-12-01T18:51:15.699Z,126.30
2022-12-01T18:53:42.855Z,139.60
2022-12-01T18:56:11.976Z,146.25
2022-12-01T18:58:40.075Z,133.15
2022-12-01T19:01:21.373Z,107.45
2022-12-01T19:03:48.862Z,103.20
2022-12-01T19:06:16.132Z,98.30
2022-12-01T19:08:46.916Z,94.53
2022-12-01T19:11:14.811Z,99.28
2022-12-01T19:13:41.992Z,119.85
2022-12-01T19:16:10.478Z,99.28
2022-12-01T19:18:37.987Z,87.82
2022-12-01T19:21:07.009Z,74.55
2022-12-01T19:23:34.641Z,68.82
2022-12-01T19:26:05.763Z,83.65
2022-12-01T19:28:33.747Z,130.52
2022-12-01T19:31:01.031Z,67.40
2022-12-01T19:33:29.237Z,76.22
2022-12-01T19:35:57.959Z,80.65
2022-12-01T19:38:25.488Z,78.97
2022-12-01T19:40:52.786Z,76.43
2022-12-01T19:43:19.987Z,71.18
2022-12-01T19:45:50.049Z,68.82
2022-12-01T19:48:17.315Z,63.63
2022-12-01T19:50:44.441Z,62.97
2022-12-01T19:53:16.228Z,71.22
2022-12-01T19:55:43.592Z,65.93
2022-12-01T19:58:10.914Z,67.90
2022-12-01T20:00:38.113Z,100.07
2022-12-01T20:03:05.259Z,69.25
2022-12-01T20:05:33.188Z,53.20
2022-12-01T20:08:01.871Z,54.50
2022-12-01T20:10:29.204Z,59.45
2022-12-01T20:12:56.386Z,72.70
2022-12-01T20:15:25.673Z,57.50
2022-12-01T20:17:54.068Z,59.53
2022-12-01T20:20:21.297Z,60.13
2022-12-01T20:22:48.528Z,69.35
2022-12-01T20:25:17.213Z,71.57
2022-12-01T20:27:45.808Z,67.60
2022-12-01T20:30:13.821Z,72.95
2022-12-01T20:32:41.078Z,77.03
2022-12-01T20:35:11.685Z,73.18
2022-12-01T20:37:39.374Z,73.25
2022-12-01T20:40:06.873Z,79.65
2022-12-01T20:42:34.046Z,71.47
2022-12-01T20:45:01.164Z,67.28
2022-12-01T20:47:28.389Z,74.78
2022-12-01T20:49:58.304Z,74.75
2022-12-01T20:52:25.697Z,65.93
2022-12-01T20:54:53.117Z,68.72
2022-12-01T20:57:20.308Z,75.53
2022-12-01T20:59:47.444Z,58.60
2022-12-01T21:02:14.723Z,45.67
2022-12-01T21:04:42.038Z,25.35
2022-12-01T21:07:09.240Z,20.15
2022-12-01T21:09:39.835Z,15.15
2022-12-01T21:12:31.455Z,16.42
2022-12-01T21:15:20.753Z,13.52
2022-12-01T21:17:50.383Z,14.43
2022-12-01T21:20:25.906Z,13.82
2022-12-01T21:22:54.502Z,14.48
2022-12-01T21:25:23.041Z,18.17
2022-12-01T21:27:50.634Z,13.18
2022-12-01T21:30:20.010Z,9.13
2022-12-01T21:32:47.547Z,10.40
2022-12-01T21:35:17.345Z,8.52
2022-12-01T21:37:45.021Z,3.95
2022-12-01T21:40:17.149Z,5.47
2022-12-01T21:42:44.275Z,7.32
2022-12-01T21:45:31.511Z,5.53
2022-12-01T21:48:00.539Z,4.68
2022-12-01T21:50:27.742Z,5.97
2022-12-01T21:52:54.990Z,4.28
2022-12-01T21:55:25.328Z,5.78
2022-12-01T21:57:53.280Z,4.10
2022-12-01T22:00:26.053Z,4.38
2022-12-01T22:03:08.602Z,4.32
2022-12-01T22:05:35.810Z,7.57
2022-12-01T22:08:26.138Z,6.38
2022-12-01T22:10:56.467Z,9.45
2022-12-01T22:13:42.425Z,7.28
2022-12-01T22:16:18.861Z,10.75
2022-12-01T22:18:47.690Z,10.43
2022-12-01T22:21:38.334Z,6.13
2022-12-01T22:24:08.564Z,8.18
2022-12-01T22:26:39.941Z,5.60
2022-12-01T22:29:25.461Z,4.85
2022-12-01T22:31:54.459Z,4.28
2022-12-01T22:34:21.692Z,4.53
2022-12-01T22:36:49.001Z,3.03
2022-12-01T22:39:30.029Z,6.38
2022-12-01T22:42:04.326Z,3.15
2022-12-01T22:44:31.674Z,3.00
2022-12-01T22:47:00.898Z,3.17
2022-12-01T22:49:29.019Z,1.42
2022-12-01T22:52:03.323Z,2.22
2022-12-01T22:54:33.108Z,1.58
2022-12-01T22:57:06.403Z,2.50
2022-12-01T22:59:37.762Z,5.70
2022-12-01T23:02:20.775Z,2.75
2022-12-01T23:04:49.323Z,3.88
2022-12-01T23:07:31.788Z,2.25
2022-12-01T23:10:12.019Z,1.90
2022-12-01T23:12:39.307Z,3.08
2022-12-01T23:15:25.266Z,3.15
2022-12-01T23:17:53.910Z,2.20
2022-12-01T23:20:21.722Z,2.10
2022-12-01T23:22:49.160Z,1.50
2022-12-01T23:25:18.038Z,2.33
2022-12-01T23:27:46.201Z,1.88
2022-12-01T23:30:14.456Z,4.07
2022-12-01T23:32:41.867Z,5.50
2022-12-01T23:35:15.208Z,1.75
2022-12-01T23:37:43.611Z,4.13
2022-12-01T23:40:21.745Z,3.55
2022-12-01T23:42:48.988Z,2.97
2022-12-01T23:45:23.850Z,1.88
2022-12-01T23:47:53.152Z,1.42
2022-12-01T23:50:22.907Z,2.60
2022-12-01T23:52:50.101Z,3.08
2022-12-01T23:55:21.993Z,1.63
2022-12-01T23:57:49.638Z,3.15
